createdAt,value
2023-02-20T00:01:25.280Z,6.05
2023-02-20T00:03:53.241Z,6.95
2023-02-20T00:06:22.438Z,5.90
2023-02-20T00:08:49.185Z,5.40
2023-02-20T00:11:16.277Z,7.60
2023-02-20T00:13:47.994Z,5.80
2023-02-20T00:16:15.782Z,6.50
2023-02-20T00:18:42.624Z,6.60
2023-02-20T00:21:09.368Z,7.75
2023-02-20T00:23:36.184Z,5.30
2023-02-20T00:26:02.939Z,8.20
2023-02-20T00:28:30.073Z,5.82
2023-02-20T00:30:56.927Z,5.63
2023-02-20T00:33:24.206Z,5.03
2023-02-20T00:35:51.861Z,6.18
2023-02-20T00:38:19.476Z,4.90
2023-02-20T00:40:46.131Z,5.70
2023-02-20T00:43:12.965Z,6.05
2023-02-20T00:45:39.528Z,5.43
2023-02-20T00:48:06.310Z,7.53
2023-02-20T00:50:32.915Z,5.55
2023-02-20T00:52:59.775Z,5.68
2023-02-20T00:55:26.440Z,6.18
2023-02-20T00:57:53.727Z,5.38
2023-02-20T01:00:27.791Z,5.40
2023-02-20T01:02:54.652Z,6.35
2023-02-20T01:05:21.927Z,5.50
2023-02-20T01:07:48.733Z,5.68
2023-02-20T01:10:15.839Z,7.50
2023-02-20T01:12:44.832Z,5.80
2023-02-20T01:15:12.230Z,7.90
2023-02-20T01:17:38.827Z,5.05
2023-02-20T01:20:06.491Z,5.10
2023-02-20T01:22:33.069Z,5.18
2023-02-20T01:25:00.329Z,6.75
2023-02-20T01:27:27.214Z,6.15
2023-02-20T01:29:54.244Z,5.93
2023-02-20T01:32:20.900Z,5.95
2023-02-20T01:34:47.857Z,8.52
2023-02-20T01:37:14.855Z,8.02
2023-02-20T01:39:41.867Z,9.68
2023-02-20T01:42:14.917Z,8.52
2023-02-20T01:44:42.375Z,8.25
2023-02-20T01:47:13.139Z,11.20
2023-02-20T01:50:03.943Z,12.02
2023-02-20T01:52:33.833Z,15.07
2023-02-20T01:55:03.264Z,11.85
2023-02-20T01:57:34.608Z,10.45
2023-02-20T02:00:24.543Z,10.77
2023-02-20T02:02:54.629Z,9.90
2023-02-20T02:05:22.853Z,9.15
2023-02-20T02:07:51.952Z,11.05
2023-02-20T02:10:24.835Z,9.55
2023-02-20T02:12:54.652Z,9.35
2023-02-20T02:15:23.711Z,11.45
2023-02-20T02:18:07.868Z,10.30
2023-02-20T02:20:54.888Z,11.18
2023-02-20T02:23:27.620Z,11.18
2023-02-20T02:26:26.953Z,10.45
2023-02-20T02:29:14.809Z,8.10
2023-02-20T02:31:53.700Z,10.27
2023-02-20T02:34:52.135Z,12.60
2023-02-20T02:37:32.701Z,11.02
2023-02-20T02:40:28.472Z,11.00
2023-02-20T02:43:09.558Z,9.43
2023-02-20T02:45:50.760Z,11.23
2023-02-20T02:48:27.219Z,10.25
2023-02-20T02:51:00.479Z,11.50
2023-02-20T02:53:28.078Z,12.55
2023-02-20T02:55:54.664Z,12.38
2023-02-20T02:58:21.598Z,13.15
2023-02-20T03:00:55.382Z,9.65
2023-02-20T03:03:30.962Z,9.10
2023-02-20T03:06:18.734Z,11.10
2023-02-20T03:09:01.408Z,13.15
2023-02-20T03:11:31.679Z,14.35
2023-02-20T03:14:40.385Z,10.45
2023-02-20T03:17:26.593Z,13.10
2023-02-20T03:19:57.415Z,9.88
2023-02-20T03:22:39.477Z,10.77
2023-02-20T03:25:14.198Z,18.02
2023-02-20T03:27:47.704Z,11.32
2023-02-20T03:30:30.859Z,11.52
2023-02-20T03:33:40.351Z,12.27
2023-02-20T03:36:32.101Z,11.35
2023-02-20T03:39:27.025Z,10.52
2023-02-20T03:42:13.840Z,13.50
2023-02-20T03:44:41.864Z,16.88
2023-02-20T03:47:12.029Z,10.20
2023-02-20T03:49:43.655Z,15.18
2023-02-20T03:52:11.139Z,10.85
2023-02-20T03:54:38.992Z,10.27
2023-02-20T03:57:19.102Z,11.98
2023-02-20T03:59:55.823Z,14.50
2023-02-20T04:02:28.052Z,12.63
2023-02-20T04:04:59.616Z,13.02
2023-02-20T04:07:33.805Z,19.42
2023-02-20T04:10:06.756Z,15.50
2023-02-20T04:12:38.309Z,18.77
2023-02-20T04:15:09.056Z,20.17
2023-02-20T04:17:41.738Z,22.33
2023-02-20T04:20:09.083Z,18.10
2023-02-20T04:22:40.845Z,21.35
2023-02-20T04:25:44.852Z,20.20
2023-02-20T04:28:12.777Z,19.45
2023-02-20T04:30:40.203Z,18.20
2023-02-20T04:33:07.005Z,16.27
2023-02-20T04:35:34.776Z,16.88
2023-02-20T04:38:01.465Z,18.88
2023-02-20T04:40:28.205Z,24.13
2023-02-20T04:42:54.911Z,21.63
2023-02-20T04:45:21.590Z,21.17
2023-02-20T04:47:48.422Z,24.85
2023-02-20T04:50:41.354Z,22.70
2023-02-20T04:53:08.084Z,22.05
2023-02-20T04:55:34.795Z,25.30
2023-02-20T04:58:01.686Z,25.73
2023-02-20T05:00:28.521Z,19.33
2023-02-20T05:02:55.744Z,23.83
2023-02-20T05:05:25.068Z,26.73
2023-02-20T05:08:00.408Z,26.88
2023-02-20T05:10:29.007Z,27.95
2023-02-20T05:12:56.704Z,27.23
2023-02-20T05:15:24.331Z,29.23
2023-02-20T05:17:51.334Z,22.88
2023-02-20T05:20:19.302Z,26.90
2023-02-20T05:23:04.457Z,26.85
2023-02-20T05:25:31.140Z,26.83
2023-02-20T05:27:58.492Z,29.70
2023-02-20T05:30:25.220Z,25.95
2023-02-20T05:32:51.884Z,24.58
2023-02-20T05:35:18.577Z,30.58
2023-02-20T05:37:45.157Z,31.70
2023-02-20T05:40:12.183Z,29.27
2023-02-20T05:42:38.829Z,25.92
2023-02-20T05:45:09.071Z,35.03
2023-02-20T05:47:38.530Z,29.50
2023-02-20T05:50:05.922Z,31.63
2023-02-20T05:52:32.633Z,27.38
2023-02-20T05:54:59.394Z,30.77
2023-02-20T05:57:26.138Z,28.55
2023-02-20T05:59:52.807Z,28.55
2023-02-20T06:02:19.413Z,25.55
2023-02-20T06:04:46.122Z,27.05
2023-02-20T06:07:12.765Z,32.17
2023-02-20T06:09:43.693Z,24.17
2023-02-20T06:12:10.696Z,27.60
2023-02-20T06:14:37.267Z,23.05
2023-02-20T06:17:04.047Z,25.85
2023-02-20T06:19:30.809Z,31.25
2023-02-20T06:22:00.440Z,34.00
2023-02-20T06:24:27.347Z,30.63
2023-02-20T06:26:53.936Z,29.02
2023-02-20T06:29:20.691Z,22.92
2023-02-20T06:31:48.021Z,30.88
2023-02-20T06:34:16.110Z,27.35
2023-02-20T06:36:43.282Z,33.50
2023-02-20T06:39:12.588Z,30.17
2023-02-20T06:41:39.671Z,23.70
2023-02-20T06:44:06.663Z,29.83
2023-02-20T06:46:33.532Z,34.15
2023-02-20T06:49:00.803Z,30.10
2023-02-20T06:51:32.910Z,30.40
2023-02-20T06:54:01.045Z,24.75
2023-02-20T06:56:30.091Z,24.85
2023-02-20T06:58:58.124Z,23.02
2023-02-20T07:01:30.010Z,27.88
2023-02-20T07:04:00.833Z,19.25
2023-02-20T07:06:28.792Z,22.42
2023-02-20T07:08:55.393Z,23.58
2023-02-20T07:11:24.002Z,22.58
2023-02-20T07:13:51.020Z,25.25
2023-02-20T07:16:17.686Z,23.13
2023-02-20T07:18:44.525Z,21.63
2023-02-20T07:21:11.120Z,26.10
2023-02-20T07:23:37.747Z,24.63
2023-02-20T07:26:05.910Z,24.10
2023-02-20T07:28:35.925Z,23.63
2023-02-20T07:31:02.735Z,23.52
2023-02-20T07:33:29.422Z,20.63
2023-02-20T07:35:56.045Z,21.48
2023-02-20T07:38:22.702Z,15.40
2023-02-20T07:40:49.259Z,24.48
2023-02-20T07:43:16.962Z,26.02
2023-02-20T07:45:43.653Z,19.45
2023-02-20T07:48:10.368Z,22.35
2023-02-20T07:50:36.997Z,23.80
2023-02-20T07:53:04.940Z,21.42
2023-02-20T07:55:31.514Z,23.05
2023-02-20T07:57:58.590Z,27.48
2023-02-20T08:00:27.449Z,23.60
2023-02-20T08:02:56.326Z,22.70
2023-02-20T08:05:23.454Z,22.45
2023-02-20T08:07:50.737Z,22.90
2023-02-20T08:10:21.239Z,19.02
2023-02-20T08:12:49.103Z,24.13
2023-02-20T08:15:18.622Z,21.67
2023-02-20T08:17:47.617Z,21.42
2023-02-20T08:20:21.223Z,19.42
2023-02-20T08:22:51.130Z,18.20
2023-02-20T08:25:19.089Z,20.58
2023-02-20T08:27:49.429Z,19.00
2023-02-20T08:30:25.676Z,21.50
2023-02-20T08:33:11.229Z,21.45
2023-02-20T08:35:37.915Z,21.38
2023-02-20T08:38:07.204Z,16.65
2023-02-20T08:40:35.953Z,20.83
2023-02-20T08:43:02.612Z,22.10
2023-02-20T08:45:29.413Z,23.13
2023-02-20T08:48:02.329Z,17.13
2023-02-20T08:50:30.295Z,22.67
2023-02-20T08:52:56.868Z,16.63
2023-02-20T08:55:23.671Z,22.85
2023-02-20T08:57:50.247Z,22.20
2023-02-20T09:00:19.291Z,18.08
2023-02-20T09:02:48.843Z,18.70
2023-02-20T09:05:16.812Z,14.00
2023-02-20T09:07:43.615Z,25.17
2023-02-20T09:10:10.562Z,16.42
2023-02-20T09:12:39.864Z,20.02
2023-02-20T09:15:06.705Z,23.65
2023-02-20T09:17:33.590Z,18.73
2023-02-20T09:20:01.257Z,20.55
2023-02-20T09:22:28.050Z,16.60
2023-02-20T09:24:55.249Z,23.88
2023-02-20T09:27:22.119Z,19.40
2023-02-20T09:29:48.985Z,18.85
2023-02-20T09:32:15.916Z,17.60
2023-02-20T09:34:44.056Z,18.70
2023-02-20T09:37:11.309Z,24.05
2023-02-20T09:39:38.125Z,21.65
2023-02-20T09:42:08.803Z,24.75
2023-02-20T09:45:17.473Z,17.83
2023-02-20T09:48:02.404Z,23.58
2023-02-20T09:50:36.706Z,20.17
2023-02-20T09:53:24.356Z,17.40
2023-02-20T09:55:52.455Z,25.20
2023-02-20T09:58:26.394Z,18.58
2023-02-20T10:00:55.968Z,22.88
2023-02-20T10:03:33.120Z,15.80
2023-02-20T10:06:01.463Z,17.85
2023-02-20T10:08:28.122Z,20.80
2023-02-20T10:11:00.414Z,21.63
2023-02-20T10:13:32.869Z,15.43
2023-02-20T10:16:03.537Z,23.23
2023-02-20T10:18:59.565Z,19.65
2023-02-20T10:21:56.187Z,18.35
2023-02-20T10:24:49.336Z,16.63
2023-02-20T10:27:28.773Z,18.55
2023-02-20T10:29:57.898Z,16.40
2023-02-20T10:32:56.655Z,15.15
2023-02-20T10:35:34.650Z,14.60
2023-02-20T10:38:05.824Z,11.30
2023-02-20T10:40:37.604Z,18.23
2023-02-20T10:43:31.038Z,17.02
2023-02-20T10:46:24.537Z,11.60
2023-02-20T10:48:57.080Z,11.95
2023-02-20T10:51:33.624Z,8.60
2023-02-20T10:54:07.571Z,14.23
2023-02-20T10:56:45.329Z,13.77
2023-02-20T10:59:57.036Z,11.35
2023-02-20T11:02:27.888Z,18.38
2023-02-20T11:05:07.624Z,17.75
2023-02-20T11:07:34.297Z,17.60
2023-02-20T11:10:01.020Z,13.10
2023-02-20T11:12:45.357Z,12.68
2023-02-20T11:15:15.994Z,10.43
2023-02-20T11:17:44.474Z,10.98
2023-02-20T11:20:32.923Z,17.42
2023-02-20T11:23:01.557Z,13.05
2023-02-20T11:25:31.656Z,13.07
2023-02-20T11:28:07.812Z,17.48
2023-02-20T11:30:43.735Z,17.00
2023-02-20T11:33:24.774Z,14.40
2023-02-20T11:35:56.584Z,11.50
2023-02-20T11:38:23.148Z,13.05
2023-02-20T11:41:05.020Z,11.68
2023-02-20T11:44:00.566Z,13.82
2023-02-20T11:46:28.291Z,11.23
2023-02-20T11:49:08.103Z,8.18
2023-02-20T11:51:43.405Z,10.40
2023-02-20T11:54:35.994Z,10.50
2023-02-20T11:57:07.204Z,7.18
2023-02-20T11:59:44.370Z,13.02
2023-02-20T12:02:17.237Z,16.77
2023-02-20T12:05:05.758Z,15.02
2023-02-20T12:07:51.935Z,8.68
2023-02-20T12:10:40.485Z,11.05
2023-02-20T12:13:14.028Z,25.10
2023-02-20T12:15:44.974Z,16.17
2023-02-20T12:18:40.779Z,13.75
2023-02-20T12:21:22.811Z,15.20
2023-02-20T12:24:05.294Z,13.95
2023-02-20T12:26:47.552Z,12.95
2023-02-20T12:29:41.383Z,12.43
2023-02-20T12:32:30.635Z,11.55
2023-02-20T12:35:32.455Z,8.55
2023-02-20T12:38:04.915Z,10.43
2023-02-20T12:40:55.759Z,9.80
2023-02-20T12:43:46.859Z,10.05
2023-02-20T12:46:26.697Z,8.15
2023-02-20T12:48:56.286Z,7.45
2023-02-20T12:51:31.649Z,8.02
2023-02-20T12:54:14.066Z,11.25
2023-02-20T12:56:49.917Z,10.52
2023-02-20T12:59:35.314Z,14.00
2023-02-20T13:02:25.332Z,16.15
2023-02-20T13:05:02.464Z,10.45
2023-02-20T13:07:32.194Z,12.80
2023-02-20T13:10:12.926Z,10.90
2023-02-20T13:12:39.642Z,8.70
2023-02-20T13:15:27.893Z,9.77
2023-02-20T13:18:02.702Z,11.40
2023-02-20T13:20:35.411Z,12.70
2023-02-20T13:23:04.571Z,16.42
2023-02-20T13:25:31.269Z,12.70
2023-02-20T13:28:13.539Z,11.27
2023-02-20T13:30:41.258Z,13.50
2023-02-20T13:33:29.729Z,13.00
2023-02-20T13:35:57.094Z,11.20
2023-02-20T13:38:27.036Z,12.43
2023-02-20T13:40:58.825Z,13.18
2023-02-20T13:43:31.462Z,11.27
2023-02-20T13:46:00.998Z,10.43
2023-02-20T13:48:33.943Z,9.43
2023-02-20T13:51:18.404Z,11.82
2023-02-20T13:53:45.019Z,8.60
2023-02-20T13:56:46.372Z,10.43
2023-02-20T13:59:18.081Z,13.07
2023-02-20T14:02:24.243Z,10.85
2023-02-20T14:04:56.064Z,11.05
2023-02-20T14:07:44.213Z,11.63
2023-02-20T14:10:25.922Z,11.35
2023-02-20T14:13:05.135Z,16.75
2023-02-20T14:15:34.504Z,13.13
2023-02-20T14:18:01.821Z,14.27
2023-02-20T14:20:39.739Z,14.70
2023-02-20T14:23:40.639Z,13.88
2023-02-20T14:26:30.719Z,13.02
2023-02-20T14:28:59.814Z,13.15
2023-02-20T14:31:39.604Z,11.57
2023-02-20T14:34:16.090Z,9.77
2023-02-20T14:36:57.998Z,12.45
2023-02-20T14:39:44.083Z,12.45
2023-02-20T14:42:16.251Z,13.90
2023-02-20T14:44:43.448Z,9.60
2023-02-20T14:47:15.454Z,12.35
2023-02-20T14:49:42.481Z,15.02
2023-02-20T14:52:16.688Z,11.98
2023-02-20T14:54:57.139Z,18.52
2023-02-20T14:57:23.930Z,11.40
2023-02-20T14:59:50.979Z,11.13
2023-02-20T15:02:32.632Z,11.43
2023-02-20T15:05:14.044Z,9.50
2023-02-20T15:07:40.887Z,15.30
2023-02-20T15:10:44.495Z,12.23
2023-02-20T15:13:14.575Z,12.15
2023-02-20T15:15:51.839Z,12.00
2023-02-20T15:18:36.259Z,13.25
2023-02-20T15:21:04.119Z,11.57
2023-02-20T15:23:37.561Z,14.85
2023-02-20T15:26:27.092Z,12.98
2023-02-20T15:29:26.003Z,11.93
2023-02-20T15:32:01.640Z,13.23
2023-02-20T15:34:38.610Z,15.05
2023-02-20T15:37:38.608Z,10.80
2023-02-20T15:40:13.666Z,10.02
2023-02-20T15:42:40.232Z,10.50
2023-02-20T15:45:07.251Z,14.95
2023-02-20T15:47:33.943Z,11.23
2023-02-20T15:50:01.982Z,11.55
2023-02-20T15:52:29.398Z,12.27
2023-02-20T15:54:56.776Z,15.88
2023-02-20T15:57:23.945Z,13.68
2023-02-20T15:59:51.093Z,10.45
2023-02-20T16:02:21.521Z,13.63
2023-02-20T16:04:49.001Z,12.75
2023-02-20T16:07:18.482Z,12.70
2023-02-20T16:09:45.721Z,17.73
2023-02-20T16:12:28.082Z,16.00
2023-02-20T16:14:55.201Z,14.82
2023-02-20T16:17:25.203Z,14.95
2023-02-20T16:19:52.700Z,14.38
2023-02-20T16:22:19.445Z,15.75
2023-02-20T16:24:47.117Z,16.92
2023-02-20T16:27:25.387Z,17.40
2023-02-20T16:29:54.056Z,20.58
2023-02-20T16:32:23.799Z,13.20
2023-02-20T16:34:51.823Z,15.75
2023-02-20T16:37:19.285Z,16.27
2023-02-20T16:39:46.351Z,17.35
2023-02-20T16:42:33.815Z,16.90
2023-02-20T16:45:05.219Z,13.38
2023-02-20T16:47:32.226Z,15.13
2023-02-20T16:50:01.709Z,18.60
2023-02-20T16:52:39.868Z,15.45
2023-02-20T16:55:19.876Z,15.25
2023-02-20T16:57:46.879Z,15.65
2023-02-20T17:00:16.456Z,18.15
2023-02-20T17:02:44.898Z,14.15
2023-02-20T17:05:12.819Z,12.07
2023-02-20T17:07:40.288Z,16.35
2023-02-20T17:10:08.086Z,14.05
2023-02-20T17:12:35.197Z,18.58
2023-02-20T17:15:02.502Z,14.38
2023-02-20T17:17:29.128Z,16.88
2023-02-20T17:19:57.146Z,19.17
2023-02-20T17:22:26.305Z,16.30
2023-02-20T17:24:53.782Z,16.40
2023-02-20T17:27:22.001Z,16.75
2023-02-20T17:29:49.896Z,16.58
2023-02-20T17:32:17.087Z,15.70
2023-02-20T17:34:44.352Z,16.73
2023-02-20T17:37:12.582Z,18.33
2023-02-20T17:39:39.512Z,17.45
2023-02-20T17:42:06.741Z,19.05
2023-02-20T17:44:33.485Z,19.83
2023-02-20T17:47:01.345Z,17.35
2023-02-20T17:49:31.708Z,17.02
2023-02-20T17:51:59.193Z,17.17
2023-02-20T17:54:27.369Z,17.13
2023-02-20T17:56:55.098Z,13.90
2023-02-20T17:59:23.745Z,16.48
2023-02-20T18:01:51.428Z,20.23
2023-02-20T18:04:21.199Z,13.45
2023-02-20T18:06:49.291Z,19.95
2023-02-20T18:09:18.009Z,17.63
2023-02-20T18:11:46.631Z,17.92
2023-02-20T18:14:14.588Z,15.63
2023-02-20T18:16:41.347Z,15.95
2023-02-20T18:19:10.561Z,16.83
2023-02-20T18:21:40.646Z,13.35
2023-02-20T18:24:07.876Z,16.55
2023-02-20T18:26:36.138Z,17.63
2023-02-20T18:29:03.590Z,17.70
2023-02-20T18:31:30.627Z,18.05
2023-02-20T18:33:57.469Z,16.58
2023-02-20T18:36:25.210Z,17.33
2023-02-20T18:38:52.230Z,17.45
2023-02-20T18:41:19.068Z,14.73
2023-02-20T18:43:46.431Z,16.75
2023-02-20T18:46:24.024Z,16.23
2023-02-20T18:48:50.692Z,17.13
2023-02-20T18:51:18.326Z,15.20
2023-02-20T18:53:45.340Z,18.17
2023-02-20T18:56:13.315Z,17.13
2023-02-20T18:58:40.500Z,17.73
2023-02-20T19:01:07.837Z,14.30
2023-02-20T19:03:34.464Z,17.40
2023-02-20T19:06:01.720Z,11.93
2023-02-20T19:08:28.296Z,16.15
2023-02-20T19:10:54.961Z,14.52
2023-02-20T19:13:21.636Z,19.35
2023-02-20T19:15:48.407Z,13.05
2023-02-20T19:18:14.986Z,17.48
2023-02-20T19:20:41.743Z,14.98
2023-02-20T19:23:08.688Z,20.45
2023-02-20T19:25:35.501Z,14.20
2023-02-20T19:28:02.413Z,17.02
2023-02-20T19:30:29.095Z,13.57
2023-02-20T19:32:55.806Z,19.08
2023-02-20T19:35:22.427Z,15.27
2023-02-20T19:37:49.114Z,16.38
2023-02-20T19:40:15.779Z,15.50
2023-02-20T19:42:42.367Z,22.58
2023-02-20T19:45:09.540Z,15.85
2023-02-20T19:47:36.441Z,16.02
2023-02-20T19:50:04.872Z,22.73
2023-02-20T19:52:31.451Z,16.88
2023-02-20T19:55:00.309Z,16.85
2023-02-20T19:57:27.115Z,15.65
2023-02-20T19:59:53.957Z,20.80
2023-02-20T20:02:25.241Z,19.65
2023-02-20T20:04:52.477Z,25.70
2023-02-20T20:07:19.144Z,22.17
2023-02-20T20:09:46.161Z,23.02
2023-02-20T20:12:31.651Z,31.75
2023-02-20T20:14:58.470Z,25.35
2023-02-20T20:17:25.172Z,30.98
2023-02-20T20:20:00.366Z,22.65
2023-02-20T20:22:29.148Z,24.27
2023-02-20T20:24:55.855Z,18.33
2023-02-20T20:27:24.723Z,22.85
2023-02-20T20:29:54.454Z,25.17
2023-02-20T20:32:21.656Z,24.95
2023-02-20T20:34:52.395Z,23.50
2023-02-20T20:37:26.022Z,18.30
2023-02-20T20:39:53.914Z,26.67
2023-02-20T20:42:25.489Z,26.92
2023-02-20T20:44:59.538Z,25.23
2023-02-20T20:47:29.517Z,25.60
2023-02-20T20:49:57.469Z,22.75
2023-02-20T20:52:26.682Z,29.02
2023-02-20T20:54:55.668Z,31.60
2023-02-20T20:57:25.010Z,27.20
2023-02-20T20:59:52.563Z,26.67
2023-02-20T21:02:20.677Z,29.90
2023-02-20T21:04:50.959Z,27.65
2023-02-20T21:07:18.959Z,31.17
2023-02-20T21:09:45.897Z,28.65
2023-02-20T21:12:15.439Z,30.83
2023-02-20T21:14:43.285Z,28.52
2023-02-20T21:17:11.580Z,28.52
2023-02-20T21:19:38.909Z,28.38
2023-02-20T21:22:05.645Z,26.05
2023-02-20T21:24:36.366Z,32.15
2023-02-20T21:27:03.493Z,28.30
2023-02-20T21:29:30.152Z,30.98
2023-02-20T21:31:58.000Z,29.60
2023-02-20T21:34:26.840Z,29.65
2023-02-20T21:36:54.188Z,30.75
2023-02-20T21:39:21.627Z,30.33
2023-02-20T21:42:06.917Z,30.13
2023-02-20T21:44:36.396Z,29.13
2023-02-20T21:47:08.112Z,36.78
2023-02-20T21:49:36.968Z,33.88
2023-02-20T21:52:05.461Z,31.40
2023-02-20T21:54:32.892Z,34.78
2023-02-20T21:57:00.480Z,35.83
2023-02-20T21:59:27.905Z,32.83
2023-02-20T22:01:54.712Z,32.40
2023-02-20T22:04:22.555Z,30.63
2023-02-20T22:07:08.470Z,37.97
2023-02-20T22:09:54.094Z,35.08
2023-02-20T22:12:39.829Z,38.17
2023-02-20T22:15:25.833Z,39.55
2023-02-20T22:18:11.491Z,35.10
2023-02-20T22:20:56.962Z,37.40
2023-02-20T22:23:42.166Z,36.65
2023-02-20T22:26:28.570Z,38.90
2023-02-20T22:29:14.003Z,37.77
2023-02-20T22:31:59.064Z,32.47
2023-02-20T22:34:44.259Z,43.72
2023-02-20T22:37:29.804Z,42.85
2023-02-20T22:40:15.717Z,40.42
2023-02-20T22:43:01.231Z,40.53
2023-02-20T22:45:47.820Z,39.67
2023-02-20T22:48:32.953Z,37.53
2023-02-20T22:51:18.472Z,37.42
2023-02-20T22:54:06.491Z,39.50
2023-02-20T22:56:51.614Z,45.72
2023-02-20T22:59:37.141Z,42.67
2023-02-20T23:02:24.601Z,44.60
2023-02-20T23:05:09.891Z,39.40
2023-02-20T23:07:55.777Z,42.28
2023-02-20T23:10:41.012Z,39.53
2023-02-20T23:13:26.660Z,39.85
2023-02-20T23:16:11.800Z,39.92
2023-02-20T23:18:57.373Z,35.83
2023-02-20T23:21:42.725Z,35.75
2023-02-20T23:24:28.189Z,37.10
2023-02-20T23:27:14.032Z,37.45
2023-02-20T23:30:00.308Z,41.97
2023-02-20T23:32:45.756Z,33.92
2023-02-20T23:35:31.509Z,43.08
2023-02-20T23:38:16.484Z,41.42
2023-02-20T23:41:01.959Z,38.50
2023-02-20T23:43:48.148Z,37.22
2023-02-20T23:46:33.691Z,36.17
2023-02-20T23:49:19.880Z,34.92
2023-02-20T23:52:14.916Z,35.63
2023-02-20T23:55:02.493Z,35.97
2023-02-20T23:57:48.002Z,41.00
